sensor_id;sensor_type;location;lat;lon;timestamp;temperature;humidity
59505;DHT22;45321;53.200;5.814;2023-02-22T00:00:56;8.90;89.50
59505;DHT22;45321;53.200;5.814;2023-02-22T00:03:29;8.90;89.30
59505;DHT22;45321;53.200;5.814;2023-02-22T00:06:01;8.80;89.30
59505;DHT22;45321;53.200;5.814;2023-02-22T00:08:34;8.80;89.30
59505;DHT22;45321;53.200;5.814;2023-02-22T00:11:01;8.90;89.30
59505;DHT22;45321;53.200;5.814;2023-02-22T00:13:28;8.90;89.40
59505;DHT22;45321;53.200;5.814;2023-02-22T00:15:57;8.90;89.20
59505;DHT22;45321;53.200;5.814;2023-02-22T00:18:24;8.80;89.30
59505;DHT22;45321;53.200;5.814;2023-02-22T00:20:53;8.90;89.20
59505;DHT22;45321;53.200;5.814;2023-02-22T00:23:21;8.90;89.10
59505;DHT22;45321;53.200;5.814;2023-02-22T00:25:49;8.90;89.20
59505;DHT22;45321;53.200;5.814;2023-02-22T00:28:16;8.90;89.10
59505;DHT22;45321;53.200;5.814;2023-02-22T00:30:42;8.90;89.20
59505;DHT22;45321;53.200;5.814;2023-02-22T00:33:12;8.80;89.20
59505;DHT22;45321;53.200;5.814;2023-02-22T00:35:38;8.80;89.30
59505;DHT22;45321;53.200;5.814;2023-02-22T00:38:04;8.80;89.60
59505;DHT22;45321;53.200;5.814;2023-02-22T00:40:33;8.90;89.50
59505;DHT22;45321;53.200;5.814;2023-02-22T00:43:01;8.90;89.30
59505;DHT22;45321;53.200;5.814;2023-02-22T00:45:29;8.90;89.60
59505;DHT22;45321;53.200;5.814;2023-02-22T00:47:55;8.90;89.30
59505;DHT22;45321;53.200;5.814;2023-02-22T00:50:23;8.80;89.40
59505;DHT22;45321;53.200;5.814;2023-02-22T00:52:49;8.80;89.40
59505;DHT22;45321;53.200;5.814;2023-02-22T00:55:29;8.90;89.30
59505;DHT22;45321;53.200;5.814;2023-02-22T00:57:56;8.90;89.20
59505;DHT22;45321;53.200;5.814;2023-02-22T01:00:43;8.90;89.20
59505;DHT22;45321;53.200;5.814;2023-02-22T01:03:11;8.90;89.40
59505;DHT22;45321;53.200;5.814;2023-02-22T01:05:37;8.90;89.20
59505;DHT22;45321;53.200;5.814;2023-02-22T01:08:05;8.90;89.10
59505;DHT22;45321;53.200;5.814;2023-02-22T01:10:31;8.90;89.00
59505;DHT22;45321;53.200;5.814;2023-02-22T01:12:58;8.80;88.90
59505;DHT22;45321;53.200;5.814;2023-02-22T01:15:26;8.80;88.80
59505;DHT22;45321;53.200;5.814;2023-02-22T01:17:56;8.90;89.00
59505;DHT22;45321;53.200;5.814;2023-02-22T01:20:24;8.90;89.00
59505;DHT22;45321;53.200;5.814;2023-02-22T01:22:52;8.80;88.90
59505;DHT22;45321;53.200;5.814;2023-02-22T01:25:20;8.80;89.00
59505;DHT22;45321;53.200;5.814;2023-02-22T01:27:47;8.80;89.20
59505;DHT22;45321;53.200;5.814;2023-02-22T01:30:16;8.90;89.00
59505;DHT22;45321;53.200;5.814;2023-02-22T01:32:42;8.80;89.00
59505;DHT22;45321;53.200;5.814;2023-02-22T01:35:12;8.80;89.20
59505;DHT22;45321;53.200;5.814;2023-02-22T01:37:39;8.80;89.10
59505;DHT22;45321;53.200;5.814;2023-02-22T01:40:07;8.80;89.30
59505;DHT22;45321;53.200;5.814;2023-02-22T01:42:33;8.80;89.50
59505;DHT22;45321;53.200;5.814;2023-02-22T01:48:05;8.80;89.40
59505;DHT22;45321;53.200;5.814;2023-02-22T01:50:36;8.80;89.40
59505;DHT22;45321;53.200;5.814;2023-02-22T01:53:04;8.80;89.30
59505;DHT22;45321;53.200;5.814;2023-02-22T01:55:31;8.80;89.30
59505;DHT22;45321;53.200;5.814;2023-02-22T01:57:58;8.80;89.40
59505;DHT22;45321;53.200;5.814;2023-02-22T02:00:24;8.80;89.50
59505;DHT22;45321;53.200;5.814;2023-02-22T02:02:58;8.80;89.40
59505;DHT22;45321;53.200;5.814;2023-02-22T02:05:27;8.80;89.20
59505;DHT22;45321;53.200;5.814;2023-02-22T02:07:57;8.80;88.90
59505;DHT22;45321;53.200;5.814;2023-02-22T02:10:24;8.70;88.90
59505;DHT22;45321;53.200;5.814;2023-02-22T02:12:50;8.80;89.00
59505;DHT22;45321;53.200;5.814;2023-02-22T02:15:24;8.80;89.00
59505;DHT22;45321;53.200;5.814;2023-02-22T02:17:54;8.80;89.10
59505;DHT22;45321;53.200;5.814;2023-02-22T02:32:10;8.80;88.70
59505;DHT22;45321;53.200;5.814;2023-02-22T02:35:11;8.80;88.80
59505;DHT22;45321;53.200;5.814;2023-02-22T02:45:23;8.80;88.70
59505;DHT22;45321;53.200;5.814;2023-02-22T02:47:54;8.80;88.50
59505;DHT22;45321;53.200;5.814;2023-02-22T02:50:34;8.80;88.50
59505;DHT22;45321;53.200;5.814;2023-02-22T02:53:04;8.90;88.50
59505;DHT22;45321;53.200;5.814;2023-02-22T02:55:33;8.90;88.40
59505;DHT22;45321;53.200;5.814;2023-02-22T02:58:05;8.90;88.50
59505;DHT22;45321;53.200;5.814;2023-02-22T03:00:38;8.80;88.50
59505;DHT22;45321;53.200;5.814;2023-02-22T03:04:07;8.90;88.50
59505;DHT22;45321;53.200;5.814;2023-02-22T03:14:52;8.90;88.50
59505;DHT22;45321;53.200;5.814;2023-02-22T03:20:16;8.90;88.50
59505;DHT22;45321;53.200;5.814;2023-02-22T03:22:50;8.90;88.40
59505;DHT22;45321;53.200;5.814;2023-02-22T03:25:33;8.90;88.40
59505;DHT22;45321;53.200;5.814;2023-02-22T03:28:04;8.90;88.40
59505;DHT22;45321;53.200;5.814;2023-02-22T03:30:46;8.90;88.60
59505;DHT22;45321;53.200;5.814;2023-02-22T03:33:33;8.90;88.50
59505;DHT22;45321;53.200;5.814;2023-02-22T03:36:21;8.90;88.60
59505;DHT22;45321;53.200;5.814;2023-02-22T03:38:50;8.90;88.60
59505;DHT22;45321;53.200;5.814;2023-02-22T03:41:22;8.90;88.60
59505;DHT22;45321;53.200;5.814;2023-02-22T03:44:01;8.90;88.50
59505;DHT22;45321;53.200;5.814;2023-02-22T03:46:28;8.90;88.60
59505;DHT22;45321;53.200;5.814;2023-02-22T03:49:15;8.90;88.60
59505;DHT22;45321;53.200;5.814;2023-02-22T03:51:42;8.90;88.70
59505;DHT22;45321;53.200;5.814;2023-02-22T03:54:08;8.90;88.90
59505;DHT22;45321;53.200;5.814;2023-02-22T03:56:57;8.90;88.70
59505;DHT22;45321;53.200;5.814;2023-02-22T03:59:25;8.90;88.90
59505;DHT22;45321;53.200;5.814;2023-02-22T04:01:56;8.80;89.10
59505;DHT22;45321;53.200;5.814;2023-02-22T04:04:23;8.80;89.10
59505;DHT22;45321;53.200;5.814;2023-02-22T04:06:48;8.90;89.10
59505;DHT22;45321;53.200;5.814;2023-02-22T04:09:15;8.90;88.90
59505;DHT22;45321;53.200;5.814;2023-02-22T04:11:42;8.80;88.90
59505;DHT22;45321;53.200;5.814;2023-02-22T04:14:07;8.90;88.90
59505;DHT22;45321;53.200;5.814;2023-02-22T04:16:33;8.90;88.90
59505;DHT22;45321;53.200;5.814;2023-02-22T04:18:59;8.80;89.00
59505;DHT22;45321;53.200;5.814;2023-02-22T04:21:24;8.80;88.90
59505;DHT22;45321;53.200;5.814;2023-02-22T04:23:50;8.80;88.90
59505;DHT22;45321;53.200;5.814;2023-02-22T04:26:16;8.80;89.00
59505;DHT22;45321;53.200;5.814;2023-02-22T04:28:42;8.90;89.10
59505;DHT22;45321;53.200;5.814;2023-02-22T04:31:08;8.80;89.20
59505;DHT22;45321;53.200;5.814;2023-02-22T04:33:34;8.80;89.10
59505;DHT22;45321;53.200;5.814;2023-02-22T04:36:00;8.80;89.20
59505;DHT22;45321;53.200;5.814;2023-02-22T04:38:26;8.80;89.00
59505;DHT22;45321;53.200;5.814;2023-02-22T04:40:53;8.80;89.00
59505;DHT22;45321;53.200;5.814;2023-02-22T04:43:19;8.80;88.70
59505;DHT22;45321;53.200;5.814;2023-02-22T04:45:45;8.80;88.60
59505;DHT22;45321;53.200;5.814;2023-02-22T04:48:10;8.80;88.50
59505;DHT22;45321;53.200;5.814;2023-02-22T04:50:36;8.80;88.40
59505;DHT22;45321;53.200;5.814;2023-02-22T04:53:03;8.80;88.40
59505;DHT22;45321;53.200;5.814;2023-02-22T04:55:28;8.80;88.50
59505;DHT22;45321;53.200;5.814;2023-02-22T04:57:55;8.80;88.60
59505;DHT22;45321;53.200;5.814;2023-02-22T05:00:21;8.80;88.40
59505;DHT22;45321;53.200;5.814;2023-02-22T05:02:47;8.80;88.30
59505;DHT22;45321;53.200;5.814;2023-02-22T05:05:15;8.80;88.20
59505;DHT22;45321;53.200;5.814;2023-02-22T05:07:41;8.80;88.00
59505;DHT22;45321;53.200;5.814;2023-02-22T05:10:07;8.80;88.00
59505;DHT22;45321;53.200;5.814;2023-02-22T05:12:34;8.70;87.30
59505;DHT22;45321;53.200;5.814;2023-02-22T05:15:00;8.70;87.00
59505;DHT22;45321;53.200;5.814;2023-02-22T05:17:26;8.60;86.90
59505;DHT22;45321;53.200;5.814;2023-02-22T05:19:52;8.60;86.70
59505;DHT22;45321;53.200;5.814;2023-02-22T05:22:18;8.60;86.50
59505;DHT22;45321;53.200;5.814;2023-02-22T05:24:43;8.60;86.20
59505;DHT22;45321;53.200;5.814;2023-02-22T05:27:09;8.60;86.30
59505;DHT22;45321;53.200;5.814;2023-02-22T05:29:36;8.60;86.30
59505;DHT22;45321;53.200;5.814;2023-02-22T05:32:03;8.50;86.20
59505;DHT22;45321;53.200;5.814;2023-02-22T05:34:31;8.50;86.40
59505;DHT22;45321;53.200;5.814;2023-02-22T05:36:57;8.50;86.40
59505;DHT22;45321;53.200;5.814;2023-02-22T05:39:24;8.50;86.00
59505;DHT22;45321;53.200;5.814;2023-02-22T05:41:50;8.40;86.10
59505;DHT22;45321;53.200;5.814;2023-02-22T05:44:15;8.40;86.20
59505;DHT22;45321;53.200;5.814;2023-02-22T05:46:41;8.50;86.30
59505;DHT22;45321;53.200;5.814;2023-02-22T05:49:07;8.50;85.90
59505;DHT22;45321;53.200;5.814;2023-02-22T05:51:32;8.50;86.20
59505;DHT22;45321;53.200;5.814;2023-02-22T05:53:58;8.50;86.20
59505;DHT22;45321;53.200;5.814;2023-02-22T05:56:27;8.50;86.40
59505;DHT22;45321;53.200;5.814;2023-02-22T05:58:53;8.50;86.50
59505;DHT22;45321;53.200;5.814;2023-02-22T06:01:19;8.60;86.30
59505;DHT22;45321;53.200;5.814;2023-02-22T06:03:47;8.60;86.50
59505;DHT22;45321;53.200;5.814;2023-02-22T06:06:13;8.60;86.50
59505;DHT22;45321;53.200;5.814;2023-02-22T06:08:39;8.60;86.30
59505;DHT22;45321;53.200;5.814;2023-02-22T06:11:05;8.60;85.70
59505;DHT22;45321;53.200;5.814;2023-02-22T06:13:31;8.60;85.80
59505;DHT22;45321;53.200;5.814;2023-02-22T06:15:57;8.50;85.70
59505;DHT22;45321;53.200;5.814;2023-02-22T06:18:24;8.60;86.10
59505;DHT22;45321;53.200;5.814;2023-02-22T06:20:51;8.60;85.70
59505;DHT22;45321;53.200;5.814;2023-02-22T06:23:17;8.50;85.50
59505;DHT22;45321;53.200;5.814;2023-02-22T06:25:43;8.60;85.50
59505;DHT22;45321;53.200;5.814;2023-02-22T06:28:08;8.60;85.70
59505;DHT22;45321;53.200;5.814;2023-02-22T06:30:35;8.50;85.40
59505;DHT22;45321;53.200;5.814;2023-02-22T06:33:01;8.40;85.40
59505;DHT22;45321;53.200;5.814;2023-02-22T06:35:26;8.40;85.30
59505;DHT22;45321;53.200;5.814;2023-02-22T06:37:52;8.40;85.80
59505;DHT22;45321;53.200;5.814;2023-02-22T06:40:18;8.40;85.80
59505;DHT22;45321;53.200;5.814;2023-02-22T06:42:47;8.40;85.70
59505;DHT22;45321;53.200;5.814;2023-02-22T06:45:15;8.40;85.00
59505;DHT22;45321;53.200;5.814;2023-02-22T06:47:41;8.40;85.00
59505;DHT22;45321;53.200;5.814;2023-02-22T06:50:18;8.30;84.80
59505;DHT22;45321;53.200;5.814;2023-02-22T06:52:44;8.30;84.70
59505;DHT22;45321;53.200;5.814;2023-02-22T06:55:19;8.30;84.80
59505;DHT22;45321;53.200;5.814;2023-02-22T06:57:45;8.30;85.10
59505;DHT22;45321;53.200;5.814;2023-02-22T07:00:11;8.30;85.00
59505;DHT22;45321;53.200;5.814;2023-02-22T07:02:37;8.30;85.20
59505;DHT22;45321;53.200;5.814;2023-02-22T07:05:03;8.30;86.10
59505;DHT22;45321;53.200;5.814;2023-02-22T07:07:28;8.20;85.80
59505;DHT22;45321;53.200;5.814;2023-02-22T07:09:54;8.20;85.70
59505;DHT22;45321;53.200;5.814;2023-02-22T07:12:20;8.20;85.40
59505;DHT22;45321;53.200;5.814;2023-02-22T07:14:46;8.20;85.40
59505;DHT22;45321;53.200;5.814;2023-02-22T07:17:12;8.20;85.20
59505;DHT22;45321;53.200;5.814;2023-02-22T07:19:37;8.20;85.40
59505;DHT22;45321;53.200;5.814;2023-02-22T07:22:03;8.20;85.30
59505;DHT22;45321;53.200;5.814;2023-02-22T07:24:30;8.20;85.30
59505;DHT22;45321;53.200;5.814;2023-02-22T07:27:00;8.20;85.30
59505;DHT22;45321;53.200;5.814;2023-02-22T07:29:25;8.20;85.20
59505;DHT22;45321;53.200;5.814;2023-02-22T07:31:51;8.20;85.30
59505;DHT22;45321;53.200;5.814;2023-02-22T07:34:17;8.10;85.10
59505;DHT22;45321;53.200;5.814;2023-02-22T07:36:42;8.10;85.10
59505;DHT22;45321;53.200;5.814;2023-02-22T07:39:08;8.20;85.20
59505;DHT22;45321;53.200;5.814;2023-02-22T07:41:34;8.10;85.40
59505;DHT22;45321;53.200;5.814;2023-02-22T07:44:00;8.20;85.40
59505;DHT22;45321;53.200;5.814;2023-02-22T07:46:26;8.20;85.30
59505;DHT22;45321;53.200;5.814;2023-02-22T07:48:51;8.10;85.20
59505;DHT22;45321;53.200;5.814;2023-02-22T07:51:17;8.20;85.40
59505;DHT22;45321;53.200;5.814;2023-02-22T07:53:45;8.20;85.60
59505;DHT22;45321;53.200;5.814;2023-02-22T07:56:11;8.10;85.40
59505;DHT22;45321;53.200;5.814;2023-02-22T07:58:36;8.20;85.80
59505;DHT22;45321;53.200;5.814;2023-02-22T08:01:02;8.20;85.60
59505;DHT22;45321;53.200;5.814;2023-02-22T08:03:31;8.20;85.70
59505;DHT22;45321;53.200;5.814;2023-02-22T08:05:58;8.20;85.60
59505;DHT22;45321;53.200;5.814;2023-02-22T08:08:25;8.10;85.50
59505;DHT22;45321;53.200;5.814;2023-02-22T08:10:51;8.10;85.80
59505;DHT22;45321;53.200;5.814;2023-02-22T08:13:18;8.20;85.60
59505;DHT22;45321;53.200;5.814;2023-02-22T08:15:44;8.10;85.60
59505;DHT22;45321;53.200;5.814;2023-02-22T08:18:13;8.20;85.60
59505;DHT22;45321;53.200;5.814;2023-02-22T08:20:41;8.10;85.70
59505;DHT22;45321;53.200;5.814;2023-02-22T08:23:08;8.00;85.30
59505;DHT22;45321;53.200;5.814;2023-02-22T08:25:34;8.10;85.50
59505;DHT22;45321;53.200;5.814;2023-02-22T08:28:03;8.00;85.60
59505;DHT22;45321;53.200;5.814;2023-02-22T08:30:30;8.00;85.90
59505;DHT22;45321;53.200;5.814;2023-02-22T08:32:57;8.10;86.00
59505;DHT22;45321;53.200;5.814;2023-02-22T08:35:24;8.00;86.20
59505;DHT22;45321;53.200;5.814;2023-02-22T08:37:55;8.00;85.90
59505;DHT22;45321;53.200;5.814;2023-02-22T08:40:24;8.00;86.00
59505;DHT22;45321;53.200;5.814;2023-02-22T08:42:53;8.00;86.00
59505;DHT22;45321;53.200;5.814;2023-02-22T08:45:19;8.00;86.30
59505;DHT22;45321;53.200;5.814;2023-02-22T08:47:45;8.00;86.20
59505;DHT22;45321;53.200;5.814;2023-02-22T08:50:20;8.10;85.90
59505;DHT22;45321;53.200;5.814;2023-02-22T08:52:52;8.10;86.30
59505;DHT22;45321;53.200;5.814;2023-02-22T08:55:23;8.10;86.10
59505;DHT22;45321;53.200;5.814;2023-02-22T08:57:49;8.10;86.20
59505;DHT22;45321;53.200;5.814;2023-02-22T09:00:16;8.10;85.90
59505;DHT22;45321;53.200;5.814;2023-02-22T09:02:43;8.00;86.00
59505;DHT22;45321;53.200;5.814;2023-02-22T09:05:08;8.00;86.10
59505;DHT22;45321;53.200;5.814;2023-02-22T09:07:35;8.00;85.80
59505;DHT22;45321;53.200;5.814;2023-02-22T09:10:01;8.00;85.90
59505;DHT22;45321;53.200;5.814;2023-02-22T09:12:27;8.00;86.20
59505;DHT22;45321;53.200;5.814;2023-02-22T09:14:52;8.00;85.90
59505;DHT22;45321;53.200;5.814;2023-02-22T09:17:18;8.00;85.90
59505;DHT22;45321;53.200;5.814;2023-02-22T09:19:44;8.10;85.60
59505;DHT22;45321;53.200;5.814;2023-02-22T09:22:10;8.10;85.60
59505;DHT22;45321;53.200;5.814;2023-02-22T09:24:35;8.10;85.60
59505;DHT22;45321;53.200;5.814;2023-02-22T09:27:01;8.00;85.80
59505;DHT22;45321;53.200;5.814;2023-02-22T09:29:29;8.00;86.00
59505;DHT22;45321;53.200;5.814;2023-02-22T09:31:55;8.10;85.90
59505;DHT22;45321;53.200;5.814;2023-02-22T09:34:23;8.10;86.00
59505;DHT22;45321;53.200;5.814;2023-02-22T09:36:55;8.20;86.00
59505;DHT22;45321;53.200;5.814;2023-02-22T09:39:24;8.20;86.10
59505;DHT22;45321;53.200;5.814;2023-02-22T09:47:32;8.30;85.50
59505;DHT22;45321;53.200;5.814;2023-02-22T09:50:02;8.30;85.50
59505;DHT22;45321;53.200;5.814;2023-02-22T09:52:38;8.30;85.50
59505;DHT22;45321;53.200;5.814;2023-02-22T09:57:36;8.40;85.60
59505;DHT22;45321;53.200;5.814;2023-02-22T10:00:14;8.40;84.90
59505;DHT22;45321;53.200;5.814;2023-02-22T10:03:12;8.40;85.00
59505;DHT22;45321;53.200;5.814;2023-02-22T10:05:46;8.40;84.80
59505;DHT22;45321;53.200;5.814;2023-02-22T10:08:15;8.40;85.00
59505;DHT22;45321;53.200;5.814;2023-02-22T10:10:45;8.40;85.10
59505;DHT22;45321;53.200;5.814;2023-02-22T10:13:38;8.50;84.50
59505;DHT22;45321;53.200;5.814;2023-02-22T10:16:30;8.50;84.90
59505;DHT22;45321;53.200;5.814;2023-02-22T10:22:10;8.60;84.70
59505;DHT22;45321;53.200;5.814;2023-02-22T10:32:49;8.70;84.60
59505;DHT22;45321;53.200;5.814;2023-02-22T10:35:22;8.80;84.40
59505;DHT22;45321;53.200;5.814;2023-02-22T10:37:51;8.80;84.50
59505;DHT22;45321;53.200;5.814;2023-02-22T10:40:21;8.80;84.60
59505;DHT22;45321;53.200;5.814;2023-02-22T10:42:51;8.90;84.50
59505;DHT22;45321;53.200;5.814;2023-02-22T10:45:38;8.90;83.40
59505;DHT22;45321;53.200;5.814;2023-02-22T10:48:10;8.90;83.80
59505;DHT22;45321;53.200;5.814;2023-02-22T10:50:40;8.90;84.00
59505;DHT22;45321;53.200;5.814;2023-02-22T10:53:07;8.90;84.30
59505;DHT22;45321;53.200;5.814;2023-02-22T10:55:33;9.00;83.80
59505;DHT22;45321;53.200;5.814;2023-02-22T10:58:05;8.90;83.70
59505;DHT22;45321;53.200;5.814;2023-02-22T11:00:37;9.00;84.10
59505;DHT22;45321;53.200;5.814;2023-02-22T11:03:18;9.00;83.70
59505;DHT22;45321;53.200;5.814;2023-02-22T11:05:45;9.00;84.00
59505;DHT22;45321;53.200;5.814;2023-02-22T11:10:47;9.10;83.70
59505;DHT22;45321;53.200;5.814;2023-02-22T11:13:36;9.20;83.60
59505;DHT22;45321;53.200;5.814;2023-02-22T11:16:37;9.10;83.50
59505;DHT22;45321;53.200;5.814;2023-02-22T11:21:40;9.20;83.50
59505;DHT22;45321;53.200;5.814;2023-02-22T11:24:12;9.10;83.80
59505;DHT22;45321;53.200;5.814;2023-02-22T11:26:53;9.10;83.90
59505;DHT22;45321;53.200;5.814;2023-02-22T11:29:30;9.10;84.00
59505;DHT22;45321;53.200;5.814;2023-02-22T11:32:14;9.10;84.30
59505;DHT22;45321;53.200;5.814;2023-02-22T11:34:46;9.20;84.50
59505;DHT22;45321;53.200;5.814;2023-02-22T11:39:48;9.30;84.30
59505;DHT22;45321;53.200;5.814;2023-02-22T11:42:28;9.30;84.10
59505;DHT22;45321;53.200;5.814;2023-02-22T11:47:35;9.30;83.90
59505;DHT22;45321;53.200;5.814;2023-02-22T11:50:19;9.30;83.90
59505;DHT22;45321;53.200;5.814;2023-02-22T11:52:51;9.30;84.10
59505;DHT22;45321;53.200;5.814;2023-02-22T11:55:41;9.40;84.20
59505;DHT22;45321;53.200;5.814;2023-02-22T11:58:32;9.40;83.90
59505;DHT22;45321;53.200;5.814;2023-02-22T12:04:05;9.40;84.20
59505;DHT22;45321;53.200;5.814;2023-02-22T12:13:04;9.50;84.00
59505;DHT22;45321;53.200;5.814;2023-02-22T12:18:42;9.40;84.30
59505;DHT22;45321;53.200;5.814;2023-02-22T12:21:15;9.40;84.60
59505;DHT22;45321;53.200;5.814;2023-02-22T12:24:05;9.50;84.60
59505;DHT22;45321;53.200;5.814;2023-02-22T12:26:36;9.60;84.40
59505;DHT22;45321;53.200;5.814;2023-02-22T12:31:58;9.60;84.00
59505;DHT22;45321;53.200;5.814;2023-02-22T12:34:33;9.70;84.10
59505;DHT22;45321;53.200;5.814;2023-02-22T12:37:46;9.70;84.20
59505;DHT22;45321;53.200;5.814;2023-02-22T12:40:02;9.80;84.30
59505;DHT22;45321;53.200;5.814;2023-02-22T12:42:44;9.80;84.00
59505;DHT22;45321;53.200;5.814;2023-02-22T12:45:21;9.80;83.60
59505;DHT22;45321;53.200;5.814;2023-02-22T12:48:02;9.80;83.70
59505;DHT22;45321;53.200;5.814;2023-02-22T12:50:32;9.80;83.60
59505;DHT22;45321;53.200;5.814;2023-02-22T12:53:19;9.70;83.40
59505;DHT22;45321;53.200;5.814;2023-02-22T12:59:04;9.70;83.10
59505;DHT22;45321;53.200;5.814;2023-02-22T13:01:37;9.60;83.50
59505;DHT22;45321;53.200;5.814;2023-02-22T13:04:05;9.60;83.80
59505;DHT22;45321;53.200;5.814;2023-02-22T13:07:24;9.60;83.70
59505;DHT22;45321;53.200;5.814;2023-02-22T13:15:10;9.70;84.00
59505;DHT22;45321;53.200;5.814;2023-02-22T13:20:37;9.60;83.80
59505;DHT22;45321;53.200;5.814;2023-02-22T13:28:37;9.60;84.20
59505;DHT22;45321;53.200;5.814;2023-02-22T13:31:35;9.60;84.50
59505;DHT22;45321;53.200;5.814;2023-02-22T13:37:13;9.50;84.80
59505;DHT22;45321;53.200;5.814;2023-02-22T13:39:46;9.50;84.80
59505;DHT22;45321;53.200;5.814;2023-02-22T13:45:26;9.70;84.80
59505;DHT22;45321;53.200;5.814;2023-02-22T13:48:18;9.70;84.20
59505;DHT22;45321;53.200;5.814;2023-02-22T13:54:01;9.70;84.40
59505;DHT22;45321;53.200;5.814;2023-02-22T13:56:27;9.70;84.30
59505;DHT22;45321;53.200;5.814;2023-02-22T13:59:00;9.70;84.20
59505;DHT22;45321;53.200;5.814;2023-02-22T14:06:58;9.70;84.30
59505;DHT22;45321;53.200;5.814;2023-02-22T14:09:49;9.80;84.40
59505;DHT22;45321;53.200;5.814;2023-02-22T14:17:59;9.90;84.50
59505;DHT22;45321;53.200;5.814;2023-02-22T14:20:31;9.90;83.70
59505;DHT22;45321;53.200;5.814;2023-02-22T14:23:28;9.80;83.20
59505;DHT22;45321;53.200;5.814;2023-02-22T14:25:55;9.90;83.40
59505;DHT22;45321;53.200;5.814;2023-02-22T14:28:52;9.90;83.60
59505;DHT22;45321;53.200;5.814;2023-02-22T14:37:03;9.90;82.90
59505;DHT22;45321;53.200;5.814;2023-02-22T14:39:41;9.90;83.20
59505;DHT22;45321;53.200;5.814;2023-02-22T14:47:47;10.10;82.80
59505;DHT22;45321;53.200;5.814;2023-02-22T14:50:27;10.00;82.20
59505;DHT22;45321;53.200;5.814;2023-02-22T14:53:35;10.10;82.60
59505;DHT22;45321;53.200;5.814;2023-02-22T14:56:07;10.10;82.70
59505;DHT22;45321;53.200;5.814;2023-02-22T14:58:40;10.10;82.80
59505;DHT22;45321;53.200;5.814;2023-02-22T15:01:35;10.20;82.90
59505;DHT22;45321;53.200;5.814;2023-02-22T15:04:24;10.20;82.90
59505;DHT22;45321;53.200;5.814;2023-02-22T15:06:52;10.20;82.70
59505;DHT22;45321;53.200;5.814;2023-02-22T15:09:26;10.20;82.80
59505;DHT22;45321;53.200;5.814;2023-02-22T15:12:20;10.20;82.50
59505;DHT22;45321;53.200;5.814;2023-02-22T15:14:42;10.20;82.60
59505;DHT22;45321;53.200;5.814;2023-02-22T15:17:19;10.10;82.60
59505;DHT22;45321;53.200;5.814;2023-02-22T15:19:46;10.10;82.80
59505;DHT22;45321;53.200;5.814;2023-02-22T15:22:20;10.00;82.70
59505;DHT22;45321;53.200;5.814;2023-02-22T15:25:03;10.00;83.00
59505;DHT22;45321;53.200;5.814;2023-02-22T15:27:30;10.00;83.00
59505;DHT22;45321;53.200;5.814;2023-02-22T15:30:06;10.00;83.30
59505;DHT22;45321;53.200;5.814;2023-02-22T15:32:41;10.00;83.40
59505;DHT22;45321;53.200;5.814;2023-02-22T15:35:27;10.00;83.40
59505;DHT22;45321;53.200;5.814;2023-02-22T15:37:59;10.00;83.30
59505;DHT22;45321;53.200;5.814;2023-02-22T15:40:25;10.00;83.30
59505;DHT22;45321;53.200;5.814;2023-02-22T15:42:59;10.00;83.10
59505;DHT22;45321;53.200;5.814;2023-02-22T15:45:28;9.90;83.30
59505;DHT22;45321;53.200;5.814;2023-02-22T15:47:54;9.90;83.30
59505;DHT22;45321;53.200;5.814;2023-02-22T15:50:28;10.00;83.20
59505;DHT22;45321;53.200;5.814;2023-02-22T15:55:39;10.00;83.30
59505;DHT22;45321;53.200;5.814;2023-02-22T16:00:42;9.90;83.50
59505;DHT22;45321;53.200;5.814;2023-02-22T16:03:18;9.90;83.60
59505;DHT22;45321;53.200;5.814;2023-02-22T16:05:48;9.90;83.50
59505;DHT22;45321;53.200;5.814;2023-02-22T16:08:21;9.90;83.60
59505;DHT22;45321;53.200;5.814;2023-02-22T16:11:07;9.90;83.70
59505;DHT22;45321;53.200;5.814;2023-02-22T16:13:39;9.90;83.60
59505;DHT22;45321;53.200;5.814;2023-02-22T16:18:51;9.90;83.70
59505;DHT22;45321;53.200;5.814;2023-02-22T16:21:19;9.90;83.70
59505;DHT22;45321;53.200;5.814;2023-02-22T16:23:53;9.90;83.80
59505;DHT22;45321;53.200;5.814;2023-02-22T16:26:28;9.90;83.60
59505;DHT22;45321;53.200;5.814;2023-02-22T16:28:58;9.90;83.70
59505;DHT22;45321;53.200;5.814;2023-02-22T16:31:35;9.90;83.70
59505;DHT22;45321;53.200;5.814;2023-02-22T16:34:06;9.80;83.80
59505;DHT22;45321;53.200;5.814;2023-02-22T16:36:38;9.80;83.80
59505;DHT22;45321;53.200;5.814;2023-02-22T16:39:06;9.80;83.80
59505;DHT22;45321;53.200;5.814;2023-02-22T16:41:32;9.80;84.00
59505;DHT22;45321;53.200;5.814;2023-02-22T16:43:58;9.80;84.10
59505;DHT22;45321;53.200;5.814;2023-02-22T16:46:24;9.80;84.10
59505;DHT22;45321;53.200;5.814;2023-02-22T16:48:50;9.80;84.20
59505;DHT22;45321;53.200;5.814;2023-02-22T16:53:47;9.70;84.40
59505;DHT22;45321;53.200;5.814;2023-02-22T16:56:16;9.70;84.50
59505;DHT22;45321;53.200;5.814;2023-02-22T16:58:43;9.60;84.50
59505;DHT22;45321;53.200;5.814;2023-02-22T17:01:10;9.70;84.70
59505;DHT22;45321;53.200;5.814;2023-02-22T17:03:37;9.60;84.80
59505;DHT22;45321;53.200;5.814;2023-02-22T17:06:03;9.60;84.80
59505;DHT22;45321;53.200;5.814;2023-02-22T17:08:29;9.60;85.20
59505;DHT22;45321;53.200;5.814;2023-02-22T17:10:57;9.60;85.10
59505;DHT22;45321;53.200;5.814;2023-02-22T17:13:25;9.50;85.20
59505;DHT22;45321;53.200;5.814;2023-02-22T17:15:51;9.50;85.10
59505;DHT22;45321;53.200;5.814;2023-02-22T17:18:19;9.50;85.30
59505;DHT22;45321;53.200;5.814;2023-02-22T17:20:51;9.60;85.40
59505;DHT22;45321;53.200;5.814;2023-02-22T17:23:18;9.60;85.60
59505;DHT22;45321;53.200;5.814;2023-02-22T17:25:56;9.60;85.50
59505;DHT22;45321;53.200;5.814;2023-02-22T17:28:24;9.60;85.40
59505;DHT22;45321;53.200;5.814;2023-02-22T17:30:51;9.70;85.30
59505;DHT22;45321;53.200;5.814;2023-02-22T17:33:20;9.70;85.30
59505;DHT22;45321;53.200;5.814;2023-02-22T17:35:47;9.70;85.30
59505;DHT22;45321;53.200;5.814;2023-02-22T17:38:13;9.60;85.40
59505;DHT22;45321;53.200;5.814;2023-02-22T17:40:44;9.60;85.50
59505;DHT22;45321;53.200;5.814;2023-02-22T17:43:14;9.60;85.50
59505;DHT22;45321;53.200;5.814;2023-02-22T17:45:41;9.60;85.60
59505;DHT22;45321;53.200;5.814;2023-02-22T17:48:07;9.60;85.50
59505;DHT22;45321;53.200;5.814;2023-02-22T17:50:37;9.70;85.50
59505;DHT22;45321;53.200;5.814;2023-02-22T17:53:04;9.60;85.50
59505;DHT22;45321;53.200;5.814;2023-02-22T17:55:30;9.60;85.50
59505;DHT22;45321;53.200;5.814;2023-02-22T17:57:58;9.60;85.50
59505;DHT22;45321;53.200;5.814;2023-02-22T18:00:32;9.60;85.50
59505;DHT22;45321;53.200;5.814;2023-02-22T18:03:01;9.60;85.50
59505;DHT22;45321;53.200;5.814;2023-02-22T18:05:30;9.60;85.60
59505;DHT22;45321;53.200;5.814;2023-02-22T18:07:57;9.60;85.60
59505;DHT22;45321;53.200;5.814;2023-02-22T18:10:23;9.60;85.60
59505;DHT22;45321;53.200;5.814;2023-02-22T18:12:52;9.60;85.70
59505;DHT22;45321;53.200;5.814;2023-02-22T18:15:19;9.60;85.60
59505;DHT22;45321;53.200;5.814;2023-02-22T18:17:46;9.60;85.60
59505;DHT22;45321;53.200;5.814;2023-02-22T18:20:13;9.60;85.50
59505;DHT22;45321;53.200;5.814;2023-02-22T18:22:41;9.60;85.40
59505;DHT22;45321;53.200;5.814;2023-02-22T18:25:12;9.70;85.50